sensor_id;sensor_type;location;lat;lon;timestamp;pressure;altitude;pressure_sealevel;temperature;humidity
72857;BME280;62742;52.136;4.500;2022-09-21T00:01:24;102788.81;;;12.41;80.06
72857;BME280;62742;52.136;4.500;2022-09-21T00:03:55;102789.69;;;12.40;79.96
72857;BME280;62742;52.136;4.500;2022-09-21T00:06:25;102787.91;;;12.38;79.83
72857;BME280;62742;52.136;4.500;2022-09-21T00:08:54;102779.97;;;12.36;80.02
72857;BME280;62742;52.136;4.500;2022-09-21T00:11:24;102783.47;;;12.32;79.82
72857;BME280;62742;52.136;4.500;2022-09-21T00:13:54;102782.59;;;12.30;79.68
72857;BME280;62742;52.136;4.500;2022-09-21T00:16:24;102781.66;;;12.28;79.82
72857;BME280;62742;52.136;4.500;2022-09-21T00:18:50;102781.66;;;12.28;79.94
72857;BME280;62742;52.136;4.500;2022-09-21T00:21:18;102785.19;;;12.28;80.05
72857;BME280;62742;52.136;4.500;2022-09-21T00:23:45;102781.69;;;12.31;80.20
72857;BME280;62742;52.136;4.500;2022-09-21T00:26:14;102782.50;;;12.24;80.44
72857;BME280;62742;52.136;4.500;2022-09-21T00:28:50;102785.09;;;12.19;80.20
72857;BME280;62742;52.136;4.500;2022-09-21T00:31:19;102783.38;;;12.20;79.95
72857;BME280;62742;52.136;4.500;2022-09-21T00:33:46;102780.72;;;12.18;79.92
72857;BME280;62742;52.136;4.500;2022-09-21T00:36:17;102779.81;;;12.14;80.02
72857;BME280;62742;52.136;4.500;2022-09-21T00:38:49;102782.41;;;12.11;79.82
72857;BME280;62742;52.136;4.500;2022-09-21T00:41:17;102779.78;;;12.11;80.07
72857;BME280;62742;52.136;4.500;2022-09-21T00:43:48;102778.00;;;12.12;80.15
72857;BME280;62742;52.136;4.500;2022-09-21T00:46:36;102779.75;;;12.08;80.14
72857;BME280;62742;52.136;4.500;2022-09-21T00:49:05;102776.22;;;12.06;80.07
72857;BME280;62742;52.136;4.500;2022-09-21T00:51:34;102774.44;;;12.05;80.07
72857;BME280;62742;52.136;4.500;2022-09-21T00:54:07;102783.19;;;12.01;80.02
72857;BME280;62742;52.136;4.500;2022-09-21T00:56:40;102784.00;;;11.94;80.21
72857;BME280;62742;52.136;4.500;2022-09-21T00:59:10;102784.75;;;11.87;80.10
72857;BME280;62742;52.136;4.500;2022-09-21T01:01:39;102779.44;;;11.81;79.66
72857;BME280;62742;52.136;4.500;2022-09-21T01:04:06;102779.34;;;11.73;79.92
72857;BME280;62742;52.136;4.500;2022-09-21T01:06:36;102782.78;;;11.67;79.79
72857;BME280;62742;52.136;4.500;2022-09-21T01:09:04;102785.41;;;11.66;79.73
72857;BME280;62742;52.136;4.500;2022-09-21T01:18:17;102776.28;;;11.37;79.97
72857;BME280;62742;52.136;4.500;2022-09-21T01:29:43;102777.13;;;11.33;79.87
72857;BME280;62742;52.136;4.500;2022-09-21T01:32:27;102784.06;;;11.28;79.58
72857;BME280;62742;52.136;4.500;2022-09-21T01:35:30;102782.28;;;11.27;80.00
72857;BME280;62742;52.136;4.500;2022-09-21T01:40:48;102780.50;;;11.23;79.70
72857;BME280;62742;52.136;4.500;2022-09-21T01:43:22;102775.16;;;11.17;80.27
72857;BME280;62742;52.136;4.500;2022-09-21T01:45:54;102776.94;;;11.18;80.39
72857;BME280;62742;52.136;4.500;2022-09-21T01:48:31;102779.53;;;11.16;80.46
72857;BME280;62742;52.136;4.500;2022-09-21T01:51:05;102780.41;;;11.14;80.70
72857;BME280;62742;52.136;4.500;2022-09-21T01:53:38;102778.56;;;11.10;81.55
72857;BME280;62742;52.136;4.500;2022-09-21T01:59:21;102768.09;;;11.13;80.49
72857;BME280;62742;52.136;4.500;2022-09-21T02:02:05;102769.50;;;11.58;80.55
72857;BME280;62742;52.136;4.500;2022-09-21T02:04:40;102774.59;;;11.39;81.54
72857;BME280;62742;52.136;4.500;2022-09-21T02:07:06;102772.75;;;11.35;81.93
72857;BME280;62742;52.136;4.500;2022-09-21T02:09:35;102772.59;;;11.21;81.64
72857;BME280;62742;52.136;4.500;2022-09-21T02:12:03;102775.16;;;11.17;81.61
72857;BME280;62742;52.136;4.500;2022-09-21T02:14:31;102775.97;;;11.11;81.44
72857;BME280;62742;52.136;4.500;2022-09-21T02:20:18;102776.81;;;11.09;81.71
72857;BME280;62742;52.136;4.500;2022-09-21T02:28:46;102790.69;;;11.00;81.90
72857;BME280;62742;52.136;4.500;2022-09-21T02:31:29;102785.41;;;10.95;82.32
72857;BME280;62742;52.136;4.500;2022-09-21T02:34:29;102780.09;;;10.94;80.97
72857;BME280;62742;52.136;4.500;2022-09-21T02:43:11;102786.16;;;10.87;81.24
72857;BME280;62742;52.136;4.500;2022-09-21T02:46:13;102778.19;;;10.82;80.52
72857;BME280;62742;52.136;4.500;2022-09-21T02:48:52;102775.56;;;10.82;80.88
72857;BME280;62742;52.136;4.500;2022-09-21T02:51:36;102774.53;;;10.74;80.29
72857;BME280;62742;52.136;4.500;2022-09-21T02:54:10;102770.16;;;10.74;80.86
72857;BME280;62742;52.136;4.500;2022-09-21T02:56:43;102776.28;;;10.72;80.76
72857;BME280;62742;52.136;4.500;2022-09-21T02:59:14;102773.53;;;10.65;80.60
72857;BME280;62742;52.136;4.500;2022-09-21T03:01:44;102779.53;;;10.57;80.83
72857;BME280;62742;52.136;4.500;2022-09-21T03:04:11;102774.25;;;10.52;80.75
72857;BME280;62742;52.136;4.500;2022-09-21T03:06:38;102783.78;;;10.48;80.70
72857;BME280;62742;52.136;4.500;2022-09-21T03:09:04;102776.81;;;10.49;80.59
72857;BME280;62742;52.136;4.500;2022-09-21T03:11:31;102784.69;;;10.49;80.51
72857;BME280;62742;52.136;4.500;2022-09-21T03:13:59;102781.09;;;10.44;80.54
72857;BME280;62742;52.136;4.500;2022-09-21T03:16:26;102786.28;;;10.39;80.68
72857;BME280;62742;52.136;4.500;2022-09-21T03:18:54;102786.19;;;10.35;80.58
72857;BME280;62742;52.136;4.500;2022-09-21T03:21:20;102785.19;;;10.29;80.60
72857;BME280;62742;52.136;4.500;2022-09-21T03:23:47;102781.59;;;10.24;80.44
72857;BME280;62742;52.136;4.500;2022-09-21T03:26:13;102790.31;;;10.20;80.49
72857;BME280;62742;52.136;4.500;2022-09-21T03:28:40;102780.59;;;10.16;80.68
72857;BME280;62742;52.136;4.500;2022-09-21T03:31:06;102787.56;;;10.14;80.49
72857;BME280;62742;52.136;4.500;2022-09-21T03:33:32;102785.75;;;10.10;80.68
72857;BME280;62742;52.136;4.500;2022-09-21T03:35:59;102789.22;;;10.09;80.75
72857;BME280;62742;52.136;4.500;2022-09-21T03:38:25;102794.41;;;10.04;80.87
72857;BME280;62742;52.136;4.500;2022-09-21T03:40:52;102795.97;;;9.95;80.90
72857;BME280;62742;52.136;4.500;2022-09-21T03:43:23;102790.66;;;9.91;80.96
72857;BME280;62742;52.136;4.500;2022-09-21T03:45:50;102795.88;;;9.90;80.66
72857;BME280;62742;52.136;4.500;2022-09-21T03:48:17;102803.75;;;9.90;80.63
72857;BME280;62742;52.136;4.500;2022-09-21T03:50:50;102796.75;;;9.90;80.33
72857;BME280;62742;52.136;4.500;2022-09-21T03:53:16;102792.22;;;9.82;80.67
72857;BME280;62742;52.136;4.500;2022-09-21T03:55:43;102799.16;;;9.78;80.46
72857;BME280;62742;52.136;4.500;2022-09-21T03:58:09;102792.16;;;9.77;80.35
72857;BME280;62742;52.136;4.500;2022-09-21T04:00:36;102800.81;;;9.73;80.39
72857;BME280;62742;52.136;4.500;2022-09-21T04:03:04;102793.81;;;9.72;80.32
72857;BME280;62742;52.136;4.500;2022-09-21T04:05:30;102793.72;;;9.69;80.35
72857;BME280;62742;52.136;4.500;2022-09-21T04:07:57;102794.59;;;9.69;80.23
72857;BME280;62742;52.136;4.500;2022-09-21T04:10:24;102796.28;;;9.66;80.25
72857;BME280;62742;52.136;4.500;2022-09-21T04:12:59;102797.09;;;9.63;80.74
72857;BME280;62742;52.136;4.500;2022-09-21T04:15:27;102788.34;;;9.63;80.86
72857;BME280;62742;52.136;4.500;2022-09-21T04:17:54;102794.41;;;9.59;81.17
72857;BME280;62742;52.136;4.500;2022-09-21T04:20:22;102796.13;;;9.58;81.15
72857;BME280;62742;52.136;4.500;2022-09-21T04:22:49;102787.41;;;9.59;81.18
72857;BME280;62742;52.136;4.500;2022-09-21T04:25:17;102788.28;;;9.60;81.25
72857;BME280;62742;52.136;4.500;2022-09-21T04:27:43;102792.69;;;9.61;81.28
72857;BME280;62742;52.136;4.500;2022-09-21T04:30:12;102790.19;;;9.67;81.14
72857;BME280;62742;52.136;4.500;2022-09-21T04:32:40;102784.88;;;9.64;81.35
72857;BME280;62742;52.136;4.500;2022-09-21T04:35:07;102790.19;;;9.67;81.37
72857;BME280;62742;52.136;4.500;2022-09-21T04:37:34;102792.88;;;9.71;81.92
72857;BME280;62742;52.136;4.500;2022-09-21T04:40:00;102795.47;;;9.70;81.96
72857;BME280;62742;52.136;4.500;2022-09-21T04:42:27;102796.44;;;9.72;81.72
72857;BME280;62742;52.136;4.500;2022-09-21T04:44:54;102787.69;;;9.73;81.90
72857;BME280;62742;52.136;4.500;2022-09-21T04:47:21;102795.63;;;9.76;81.86
72857;BME280;62742;52.136;4.500;2022-09-21T04:49:50;102792.16;;;9.79;81.95
72857;BME280;62742;52.136;4.500;2022-09-21T04:52:21;102793.84;;;9.75;82.10
72857;BME280;62742;52.136;4.500;2022-09-21T04:54:48;102801.75;;;9.77;82.24
72857;BME280;62742;52.136;4.500;2022-09-21T04:57:15;102792.19;;;9.80;82.05
72857;BME280;62742;52.136;4.500;2022-09-21T04:59:41;102789.53;;;9.79;81.79
72857;BME280;62742;52.136;4.500;2022-09-21T05:02:07;102792.97;;;9.74;82.25
72857;BME280;62742;52.136;4.500;2022-09-21T05:04:34;102789.53;;;9.77;82.32
72857;BME280;62742;52.136;4.500;2022-09-21T05:07:01;102795.69;;;9.79;82.04
72857;BME280;62742;52.136;4.500;2022-09-21T05:09:27;102798.38;;;9.82;82.25
72857;BME280;62742;52.136;4.500;2022-09-21T05:12:12;102798.38;;;9.82;82.38
72857;BME280;62742;52.136;4.500;2022-09-21T05:14:39;102795.78;;;9.85;81.96
72857;BME280;62742;52.136;4.500;2022-09-21T05:17:06;102794.06;;;9.86;82.33
72857;BME280;62742;52.136;4.500;2022-09-21T05:19:32;102797.56;;;9.86;82.43
72857;BME280;62742;52.136;4.500;2022-09-21T05:21:59;102794.94;;;9.86;82.26
72857;BME280;62742;52.136;4.500;2022-09-21T05:24:25;102799.16;;;9.78;82.03
72857;BME280;62742;52.136;4.500;2022-09-21T05:26:51;102803.63;;;9.82;82.46
72857;BME280;62742;52.136;4.500;2022-09-21T05:29:18;102803.63;;;9.84;82.17
72857;BME280;62742;52.136;4.500;2022-09-21T05:31:49;102799.31;;;9.86;82.36
72857;BME280;62742;52.136;4.500;2022-09-21T05:34:35;102801.03;;;9.85;81.93
72857;BME280;62742;52.136;4.500;2022-09-21T05:37:34;102793.16;;;9.85;81.94
72857;BME280;62742;52.136;4.500;2022-09-21T05:40:10;102802.81;;;9.86;82.58
72857;BME280;62742;52.136;4.500;2022-09-21T05:42:39;102803.66;;;9.85;82.33
72857;BME280;62742;52.136;4.500;2022-09-21T05:45:08;102806.28;;;9.85;82.37
72857;BME280;62742;52.136;4.500;2022-09-21T05:48:15;102806.31;;;9.87;81.57
72857;BME280;62742;52.136;4.500;2022-09-21T06:05:34;102814.31;;;9.93;82.02
72857;BME280;62742;52.136;4.500;2022-09-21T06:08:01;102817.22;;;10.07;82.88
72857;BME280;62742;52.136;4.500;2022-09-21T06:10:32;102820.94;;;10.18;82.75
72857;BME280;62742;52.136;4.500;2022-09-21T06:13:00;102819.25;;;10.23;82.53
72857;BME280;62742;52.136;4.500;2022-09-21T06:15:26;102822.06;;;10.33;82.86
72857;BME280;62742;52.136;4.500;2022-09-21T06:17:53;102817.84;;;10.41;83.05
72857;BME280;62742;52.136;4.500;2022-09-21T06:20:20;102811.84;;;10.50;82.82
72857;BME280;62742;52.136;4.500;2022-09-21T06:22:48;102819.88;;;10.59;82.87
72857;BME280;62742;52.136;4.500;2022-09-21T06:25:14;102821.00;;;10.73;83.13
72857;BME280;62742;52.136;4.500;2022-09-21T06:27:41;102814.16;;;10.84;83.32
72857;BME280;62742;52.136;4.500;2022-09-21T06:30:08;102818.63;;;10.90;83.59
72857;BME280;62742;52.136;4.500;2022-09-21T06:32:34;102817.94;;;11.05;83.50
72857;BME280;62742;52.136;4.500;2022-09-21T06:35:01;102813.72;;;11.15;83.32
72857;BME280;62742;52.136;4.500;2022-09-21T06:37:28;102818.19;;;11.19;83.53
72857;BME280;62742;52.136;4.500;2022-09-21T06:39:54;102815.59;;;11.25;83.51
72857;BME280;62742;52.136;4.500;2022-09-21T06:42:21;102811.38;;;11.35;83.57
72857;BME280;62742;52.136;4.500;2022-09-21T06:44:48;102812.19;;;11.29;83.42
72857;BME280;62742;52.136;4.500;2022-09-21T06:47:14;102812.38;;;11.45;83.13
72857;BME280;62742;52.136;4.500;2022-09-21T06:49:41;102818.41;;;11.37;83.31
72857;BME280;62742;52.136;4.500;2022-09-21T06:52:08;102821.91;;;11.36;83.25
72857;BME280;62742;52.136;4.500;2022-09-21T06:54:34;102822.72;;;11.32;83.20
72857;BME280;62742;52.136;4.500;2022-09-21T06:57:02;102815.56;;;11.22;83.02
72857;BME280;62742;52.136;4.500;2022-09-21T06:59:28;102820.09;;;11.31;82.73
72857;BME280;62742;52.136;4.500;2022-09-21T07:01:55;102823.66;;;11.36;82.59
72857;BME280;62742;52.136;4.500;2022-09-21T07:04:23;102824.59;;;11.39;82.31
72857;BME280;62742;52.136;4.500;2022-09-21T07:06:50;102831.75;;;11.53;82.16
72857;BME280;62742;52.136;4.500;2022-09-21T07:09:16;102832.16;;;11.85;81.93
72857;BME280;62742;52.136;4.500;2022-09-21T07:11:44;102831.81;;;12.34;80.08
72857;BME280;62742;52.136;4.500;2022-09-21T07:14:11;102832.94;;;12.65;78.70
72857;BME280;62742;52.136;4.500;2022-09-21T07:16:39;102833.97;;;12.84;77.48
72857;BME280;62742;52.136;4.500;2022-09-21T07:19:06;102825.25;;;12.95;77.33
72857;BME280;62742;52.136;4.500;2022-09-21T07:21:32;102820.22;;;13.33;76.51
72857;BME280;62742;52.136;4.500;2022-09-21T07:23:59;102830.97;;;13.76;74.90
72857;BME280;62742;52.136;4.500;2022-09-21T07:26:26;102828.38;;;14.06;72.53
72857;BME280;62742;52.136;4.500;2022-09-21T07:28:54;102823.16;;;14.27;72.49
72857;BME280;62742;52.136;4.500;2022-09-21T07:31:21;102831.09;;;14.53;71.92
72857;BME280;62742;52.136;4.500;2022-09-21T07:33:48;102824.06;;;14.77;71.37
72857;BME280;62742;52.136;4.500;2022-09-21T07:36:14;102819.59;;;15.08;70.19
72857;BME280;62742;52.136;4.500;2022-09-21T07:38:43;102819.53;;;15.28;69.21
72857;BME280;62742;52.136;4.500;2022-09-21T07:41:12;102821.25;;;15.45;68.84
72857;BME280;62742;52.136;4.500;2022-09-21T07:43:40;102821.19;;;15.56;68.19
72857;BME280;62742;52.136;4.500;2022-09-21T07:46:10;102828.16;;;15.81;66.53
72857;BME280;62742;52.136;4.500;2022-09-21T07:48:38;102821.03;;;15.97;65.95
72857;BME280;62742;52.136;4.500;2022-09-21T07:51:07;102818.31;;;16.00;64.88
72857;BME280;62742;52.136;4.500;2022-09-21T07:53:38;102822.59;;;16.24;64.98
72857;BME280;62742;52.136;4.500;2022-09-21T07:56:08;102819.06;;;16.21;65.99
72857;BME280;62742;52.136;4.500;2022-09-21T07:58:37;102824.41;;;16.18;66.90
72857;BME280;62742;52.136;4.500;2022-09-21T08:01:23;102820.94;;;16.11;67.01
72857;BME280;62742;52.136;4.500;2022-09-21T08:03:53;102817.53;;;15.86;68.33
72857;BME280;62742;52.136;4.500;2022-09-21T08:06:23;102832.31;;;16.25;68.65
72857;BME280;62742;52.136;4.500;2022-09-21T08:08:52;102820.94;;;16.10;68.74
72857;BME280;62742;52.136;4.500;2022-09-21T08:11:20;102826.22;;;16.14;66.73
72857;BME280;62742;52.136;4.500;2022-09-21T08:13:50;102819.78;;;16.41;67.49
72857;BME280;62742;52.136;4.500;2022-09-21T08:16:18;102819.63;;;16.63;65.03
72857;BME280;62742;52.136;4.500;2022-09-21T08:18:45;102825.91;;;16.54;64.14
72857;BME280;62742;52.136;4.500;2022-09-21T08:21:12;102825.34;;;17.13;63.16
72857;BME280;62742;52.136;4.500;2022-09-21T08:23:39;102828.84;;;17.18;64.33
72857;BME280;62742;52.136;4.500;2022-09-21T08:26:10;102832.75;;;17.61;62.32
72857;BME280;62742;52.136;4.500;2022-09-21T08:28:44;102832.47;;;17.84;60.80
72857;BME280;62742;52.136;4.500;2022-09-21T08:31:17;102829.50;;;18.05;60.93
72857;BME280;62742;52.136;4.500;2022-09-21T08:33:46;102831.50;;;17.91;57.89
72857;BME280;62742;52.136;4.500;2022-09-21T08:36:15;102826.09;;;17.97;58.06
72857;BME280;62742;52.136;4.500;2022-09-21T08:38:42;102828.13;;;17.76;58.42
72857;BME280;62742;52.136;4.500;2022-09-21T08:43:58;102833.56;;;17.67;58.43
72857;BME280;62742;52.136;4.500;2022-09-21T08:46:31;102827.31;;;17.70;58.91
72857;BME280;62742;52.136;4.500;2022-09-21T08:49:09;102833.75;;;17.52;57.03
72857;BME280;62742;52.136;4.500;2022-09-21T08:51:45;102832.66;;;17.70;59.70
72857;BME280;62742;52.136;4.500;2022-09-21T08:54:41;102828.59;;;18.06;59.12
72857;BME280;62742;52.136;4.500;2022-09-21T08:57:14;102833.66;;;18.23;55.86
72857;BME280;62742;52.136;4.500;2022-09-21T08:59:47;102831.28;;;18.05;56.14
72857;BME280;62742;52.136;4.500;2022-09-21T09:05:02;102834.94;;;17.99;55.96
72857;BME280;62742;52.136;4.500;2022-09-21T09:08:11;102835.09;;;18.44;56.45
72857;BME280;62742;52.136;4.500;2022-09-21T09:16:09;102841.53;;;18.85;52.10
72857;BME280;62742;52.136;4.500;2022-09-21T09:22:01;102844.47;;;19.18;50.01
72857;BME280;62742;52.136;4.500;2022-09-21T09:24:44;102839.22;;;19.15;52.48
72857;BME280;62742;52.136;4.500;2022-09-21T09:27:30;102842.88;;;19.53;53.62
72857;BME280;62742;52.136;4.500;2022-09-21T09:30:19;102835.31;;;19.32;50.10
72857;BME280;62742;52.136;4.500;2022-09-21T09:33:07;102845.03;;;19.36;49.05
72857;BME280;62742;52.136;4.500;2022-09-21T09:35:49;102848.13;;;19.13;51.88
72857;BME280;62742;52.136;4.500;2022-09-21T09:38:36;102838.56;;;19.48;47.04
72857;BME280;62742;52.136;4.500;2022-09-21T09:52:48;102846.22;;;19.65;51.70
72857;BME280;62742;52.136;4.500;2022-09-21T09:55:23;102839.19;;;19.59;50.88
72857;BME280;62742;52.136;4.500;2022-09-21T09:57:55;102838.44;;;19.52;50.54
72857;BME280;62742;52.136;4.500;2022-09-21T10:00:24;102831.97;;;19.22;50.10
72857;BME280;62742;52.136;4.500;2022-09-21T10:02:53;102837.44;;;19.14;52.03
72857;BME280;62742;52.136;4.500;2022-09-21T10:05:32;102839.22;;;19.15;52.71
72857;BME280;62742;52.136;4.500;2022-09-21T10:08:03;102835.91;;;19.01;52.08
72857;BME280;62742;52.136;4.500;2022-09-21T10:10:56;102835.53;;;19.21;46.62
72857;BME280;62742;52.136;4.500;2022-09-21T10:19:00;102818.34;;;19.36;48.57
72857;BME280;62742;52.136;4.500;2022-09-21T10:21:34;102824.66;;;19.74;47.89
72857;BME280;62742;52.136;4.500;2022-09-21T10:24:20;102832.31;;;20.28;45.77
72857;BME280;62742;52.136;4.500;2022-09-21T10:26:53;102829.31;;;20.42;45.88
72857;BME280;62742;52.136;4.500;2022-09-21T10:31:56;102831.34;;;20.31;43.92
72857;BME280;62742;52.136;4.500;2022-09-21T10:34:34;102832.97;;;20.38;44.75
72857;BME280;62742;52.136;4.500;2022-09-21T10:37:21;102830.72;;;20.57;43.21
72857;BME280;62742;52.136;4.500;2022-09-21T10:39:56;102824.69;;;20.49;44.13
72857;BME280;62742;52.136;4.500;2022-09-21T10:45:03;102822.44;;;21.01;43.88
72857;BME280;62742;52.136;4.500;2022-09-21T10:47:43;102811.81;;;21.30;41.54
72857;BME280;62742;52.136;4.500;2022-09-21T10:53:26;102813.03;;;21.19;41.54
72857;BME280;62742;52.136;4.500;2022-09-21T10:56:06;102819.88;;;20.63;42.51
72857;BME280;62742;52.136;4.500;2022-09-21T10:58:37;102812.56;;;20.35;42.80
72857;BME280;62742;52.136;4.500;2022-09-21T11:01:21;102812.59;;;20.34;45.86
72857;BME280;62742;52.136;4.500;2022-09-21T11:10:19;102802.50;;;21.13;40.25
72857;BME280;62742;52.136;4.500;2022-09-21T11:15:39;102807.28;;;21.64;43.18
72857;BME280;62742;52.136;4.500;2022-09-21T11:18:37;102805.28;;;21.71;42.66
72857;BME280;62742;52.136;4.500;2022-09-21T11:21:19;102801.91;;;21.94;41.92
72857;BME280;62742;52.136;4.500;2022-09-21T11:24:44;102792.16;;;21.32;40.80
72857;BME280;62742;52.136;4.500;2022-09-21T11:27:34;102797.34;;;22.24;41.22
72857;BME280;62742;52.136;4.500;2022-09-21T11:38:51;102789.31;;;21.08;41.33
72857;BME280;62742;52.136;4.500;2022-09-21T11:41:31;102792.41;;;21.24;41.04
72857;BME280;62742;52.136;4.500;2022-09-21T11:47:43;102787.03;;;21.24;44.15
72857;BME280;62742;52.136;4.500;2022-09-21T12:03:13;102779.31;;;20.47;48.15
72857;BME280;62742;52.136;4.500;2022-09-21T12:09:01;102778.00;;;21.59;42.74
72857;BME280;62742;52.136;4.500;2022-09-21T12:11:58;102770.91;;;20.96;40.31
72857;BME280;62742;52.136;4.500;2022-09-21T12:17:18;102767.28;;;20.98;43.35
72857;BME280;62742;52.136;4.500;2022-09-21T12:22:44;102767.78;;;21.72;43.29
72857;BME280;62742;52.136;4.500;2022-09-21T12:25:17;102762.81;;;21.60;43.41
72857;BME280;62742;52.136;4.500;2022-09-21T12:27:52;102770.88;;;21.58;44.80
72857;BME280;62742;52.136;4.500;2022-09-21T12:30:38;102770.78;;;21.90;43.32
72857;BME280;62742;52.136;4.500;2022-09-21T12:35:47;102754.22;;;22.05;39.04
72857;BME280;62742;52.136;4.500;2022-09-21T12:38:25;102755.31;;;21.41;37.89
72857;BME280;62742;52.136;4.500;2022-09-21T12:41:17;102762.03;;;21.56;44.40
72857;BME280;62742;52.136;4.500;2022-09-21T12:44:19;102758.53;;;21.54;41.48
72857;BME280;62742;52.136;4.500;2022-09-21T12:47:02;102758.75;;;22.03;41.17
72857;BME280;62742;52.136;4.500;2022-09-21T12:49:41;102757.41;;;22.16;40.43
72857;BME280;62742;52.136;4.500;2022-09-21T12:52:17;102753.03;;;21.87;40.91
72857;BME280;62742;52.136;4.500;2022-09-21T12:54:56;102749.84;;;21.74;41.45
72857;BME280;62742;52.136;4.500;2022-09-21T12:58:00;102748.59;;;21.86;44.20
72857;BME280;62742;52.136;4.500;2022-09-21T13:00:56;102738.03;;;22.62;41.03
72857;BME280;62742;52.136;4.500;2022-09-21T13:07:15;102731.50;;;23.18;36.22
72857;BME280;62742;52.136;4.500;2022-09-21T13:09:59;102733.69;;;23.08;38.91
72857;BME280;62742;52.136;4.500;2022-09-21T13:13:15;102733.66;;;22.59;39.75
72857;BME280;62742;52.136;4.500;2022-09-21T13:15:48;102730.38;;;21.97;41.44
72857;BME280;62742;52.136;4.500;2022-09-21T13:18:23;102729.44;;;21.72;40.33
72857;BME280;62742;52.136;4.500;2022-09-21T13:21:13;102733.34;;;21.61;39.86
72857;BME280;62742;52.136;4.500;2022-09-21T13:23:57;102724.63;;;21.55;44.64
72857;BME280;62742;52.136;4.500;2022-09-21T13:29:29;102723.19;;;21.43;43.88
72857;BME280;62742;52.136;4.500;2022-09-21T13:34:46;102717.97;;;21.08;43.62
72857;BME280;62742;52.136;4.500;2022-09-21T13:45:05;102717.19;;;21.05;45.92
72857;BME280;62742;52.136;4.500;2022-09-21T13:47:53;102713.91;;;20.95;44.09
72857;BME280;62742;52.136;4.500;2022-09-21T13:50:29;102720.09;;;20.97;47.25
72857;BME280;62742;52.136;4.500;2022-09-21T13:53:06;102713.13;;;20.91;44.82
72857;BME280;62742;52.136;4.500;2022-09-21T13:55:51;102712.03;;;20.99;41.22
72857;BME280;62742;52.136;4.500;2022-09-21T13:58:28;102715.09;;;20.85;49.84
72857;BME280;62742;52.136;4.500;2022-09-21T14:01:04;102708.44;;;20.68;48.15
72857;BME280;62742;52.136;4.500;2022-09-21T14:03:46;102711.69;;;20.47;48.67
72857;BME280;62742;52.136;4.500;2022-09-21T14:06:25;102716.59;;;20.29;49.63
72857;BME280;62742;52.136;4.500;2022-09-21T14:09:01;102711.94;;;20.36;45.97
72857;BME280;62742;52.136;4.500;2022-09-21T14:11:37;102708.88;;;20.17;49.44
72857;BME280;62742;52.136;4.500;2022-09-21T14:24:40;102711.50;;;19.84;52.27
72857;BME280;62742;52.136;4.500;2022-09-21T14:27:27;102702.84;;;19.74;54.14
72857;BME280;62742;52.136;4.500;2022-09-21T14:30:21;102699.56;;;19.61;54.96
72857;BME280;62742;52.136;4.500;2022-09-21T14:33:21;102697.69;;;19.65;51.65
72857;BME280;62742;52.136;4.500;2022-09-21T14:35:53;102708.41;;;19.63;49.63
72857;BME280;62742;52.136;4.500;2022-09-21T14:38:28;102703.72;;;19.75;51.57
72857;BME280;62742;52.136;4.500;2022-09-21T14:41:03;102698.34;;;19.78;51.59
72857;BME280;62742;52.136;4.500;2022-09-21T14:43:36;102694.72;;;19.79;50.19
72857;BME280;62742;52.136;4.500;2022-09-21T14:46:32;102688.53;;;19.78;49.72
72857;BME280;62742;52.136;4.500;2022-09-21T15:00:39;102668.25;;;19.70;47.68
72857;BME280;62742;52.136;4.500;2022-09-21T15:03:19;102670.22;;;19.99;49.10
72857;BME280;62742;52.136;4.500;2022-09-21T15:06:16;102662.19;;;20.33;44.39
72857;BME280;62742;52.136;4.500;2022-09-21T15:12:42;102662.44;;;20.57;44.31
72857;BME280;62742;52.136;4.500;2022-09-21T15:18:19;102650.94;;;20.21;45.59
72857;BME280;62742;52.136;4.500;2022-09-21T15:20:59;102654.59;;;20.18;44.27
72857;BME280;62742;52.136;4.500;2022-09-21T15:23:38;102664.16;;;19.92;49.03
72857;BME280;62742;52.136;4.500;2022-09-21T15:26:12;102657.66;;;19.67;46.81
72857;BME280;62742;52.136;4.500;2022-09-21T15:28:47;102656.44;;;19.44;49.90
72857;BME280;62742;52.136;4.500;2022-09-21T15:31:18;102661.25;;;19.27;49.92
72857;BME280;62742;52.136;4.500;2022-09-21T15:33:46;102658.81;;;19.17;49.20
72857;BME280;62742;52.136;4.500;2022-09-21T15:36:26;102656.25;;;19.11;52.75
72857;BME280;62742;52.136;4.500;2022-09-21T15:38:56;102653.94;;;18.96;51.77
72857;BME280;62742;52.136;4.500;2022-09-21T15:44:21;102656.09;;;18.77;55.98
72857;BME280;62742;52.136;4.500;2022-09-21T15:46:53;102648.00;;;18.83;54.92
72857;BME280;62742;52.136;4.500;2022-09-21T15:49:26;102650.44;;;18.94;52.83
72857;BME280;62742;52.136;4.500;2022-09-21T15:52:09;102660.16;;;18.96;54.01
72857;BME280;62742;52.136;4.500;2022-09-21T15:54:42;102653.78;;;19.03;54.12
72857;BME280;62742;52.136;4.500;2022-09-21T15:57:37;102648.94;;;19.21;55.82
72857;BME280;62742;52.136;4.500;2022-09-21T16:02:42;102646.03;;;19.32;52.40
72857;BME280;62742;52.136;4.500;2022-09-21T16:05:20;102648.63;;;19.35;52.19
72857;BME280;62742;52.136;4.500;2022-09-21T16:07:49;102644.47;;;19.23;49.42
72857;BME280;62742;52.136;4.500;2022-09-21T16:10:42;102645.56;;;19.13;51.66
72857;BME280;62742;52.136;4.500;2022-09-21T16:13:21;102646.53;;;19.10;53.43
72857;BME280;62742;52.136;4.500;2022-09-21T16:16:10;102641.28;;;19.07;53.25
72857;BME280;62742;52.136;4.500;2022-09-21T16:18:46;102650.50;;;18.91;54.36
72857;BME280;62742;52.136;4.500;2022-09-21T16:21:23;102647.19;;;18.78;55.85
72857;BME280;62742;52.136;4.500;2022-09-21T16:26:59;102643.25;;;18.54;55.42
72857;BME280;62742;52.136;4.500;2022-09-21T16:29:42;102642.44;;;18.50;56.13
72857;BME280;62742;52.136;4.500;2022-09-21T16:34:46;102640.13;;;18.31;57.99
72857;BME280;62742;52.136;4.500;2022-09-21T16:39:55;102636.22;;;18.03;60.33
72857;BME280;62742;52.136;4.500;2022-09-21T16:42:26;102634.66;;;17.91;60.90
72857;BME280;62742;52.136;4.500;2022-09-21T16:44:58;102637.56;;;17.74;61.75